sensor_id;sensor_type;location;lat;lon;timestamp;temperature;humidity
69598;SHT31;70000;51.176;-115.568;2023-07-09T00:00:47;54.81;7.76
69598;SHT31;70000;51.176;-115.568;2023-07-09T00:03:21;54.78;7.69
69598;SHT31;70000;51.176;-115.568;2023-07-09T00:05:50;53.57;7.95
69598;SHT31;70000;51.176;-115.568;2023-07-09T00:10:59;51.46;8.28
69598;SHT31;70000;51.176;-115.568;2023-07-09T00:13:29;50.09;8.58
69598;SHT31;70000;51.176;-115.568;2023-07-09T00:16:01;49.74;8.74
69598;SHT31;70000;51.176;-115.568;2023-07-09T00:18:48;49.55;8.77
69598;SHT31;70000;51.176;-115.568;2023-07-09T00:21:18;48.23;8.95
69598;SHT31;70000;51.176;-115.568;2023-07-09T00:23:50;46.90;9.38
69598;SHT31;70000;51.176;-115.568;2023-07-09T00:26:20;46.23;9.65
69598;SHT31;70000;51.176;-115.568;2023-07-09T00:28:50;45.68;9.58
69598;SHT31;70000;51.176;-115.568;2023-07-09T00:31:19;45.61;9.76
69598;SHT31;70000;51.176;-115.568;2023-07-09T00:33:51;44.67;10.16
69598;SHT31;70000;51.176;-115.568;2023-07-09T00:36:28;43.74;10.60
69598;SHT31;70000;51.176;-115.568;2023-07-09T00:39:00;42.64;10.84
69598;SHT31;70000;51.176;-115.568;2023-07-09T00:41:36;41.69;11.01
69598;SHT31;70000;51.176;-115.568;2023-07-09T00:50:39;43.08;10.61
69598;SHT31;70000;51.176;-115.568;2023-07-09T00:53:25;41.94;10.78
69598;SHT31;70000;51.176;-115.568;2023-07-09T00:56:08;40.62;11.15
69598;SHT31;70000;51.176;-115.568;2023-07-09T00:58:48;39.65;11.67
69598;SHT31;70000;51.176;-115.568;2023-07-09T01:01:18;38.95;12.03
69598;SHT31;70000;51.176;-115.568;2023-07-09T01:03:52;38.33;12.58
69598;SHT31;70000;51.176;-115.568;2023-07-09T01:06:37;37.65;12.79
69598;SHT31;70000;51.176;-115.568;2023-07-09T01:09:16;36.99;13.07
69598;SHT31;70000;51.176;-115.568;2023-07-09T01:11:47;36.34;13.10
69598;SHT31;70000;51.176;-115.568;2023-07-09T01:14:17;35.78;13.41
69598;SHT31;70000;51.176;-115.568;2023-07-09T01:16:50;35.25;13.39
69598;SHT31;70000;51.176;-115.568;2023-07-09T01:19:27;34.88;14.41
69598;SHT31;70000;51.176;-115.568;2023-07-09T01:22:11;34.56;14.59
69598;SHT31;70000;51.176;-115.568;2023-07-09T01:27:32;33.88;14.51
69598;SHT31;70000;51.176;-115.568;2023-07-09T01:30:06;33.55;14.39
69598;SHT31;70000;51.176;-115.568;2023-07-09T01:32:44;33.25;14.92
69598;SHT31;70000;51.176;-115.568;2023-07-09T01:35:14;33.01;16.26
69598;SHT31;70000;51.176;-115.568;2023-07-09T01:37:49;32.74;16.35
69598;SHT31;70000;51.176;-115.568;2023-07-09T01:40:23;32.51;16.26
69598;SHT31;70000;51.176;-115.568;2023-07-09T01:43:02;32.33;15.43
69598;SHT31;70000;51.176;-115.568;2023-07-09T01:45:34;32.15;15.20
69598;SHT31;70000;51.176;-115.568;2023-07-09T01:48:08;32.16;15.51
69598;SHT31;70000;51.176;-115.568;2023-07-09T01:50:44;32.26;15.41
69598;SHT31;70000;51.176;-115.568;2023-07-09T01:53:17;32.14;15.56
69598;SHT31;70000;51.176;-115.568;2023-07-09T01:55:53;31.99;15.93
69598;SHT31;70000;51.176;-115.568;2023-07-09T01:58:28;31.79;16.06
69598;SHT31;70000;51.176;-115.568;2023-07-09T02:01:02;31.59;15.98
69598;SHT31;70000;51.176;-115.568;2023-07-09T02:03:42;31.34;15.47
69598;SHT31;70000;51.176;-115.568;2023-07-09T02:06:19;31.09;15.58
69598;SHT31;70000;51.176;-115.568;2023-07-09T02:08:54;30.90;16.10
69598;SHT31;70000;51.176;-115.568;2023-07-09T02:11:38;30.75;16.56
69598;SHT31;70000;51.176;-115.568;2023-07-09T02:14:39;30.64;17.25
69598;SHT31;70000;51.176;-115.568;2023-07-09T02:21:06;30.35;19.22
69598;SHT31;70000;51.176;-115.568;2023-07-09T02:23:46;30.19;19.59
69598;SHT31;70000;51.176;-115.568;2023-07-09T02:26:33;30.05;19.98
69598;SHT31;70000;51.176;-115.568;2023-07-09T02:29:28;29.88;20.06
69598;SHT31;70000;51.176;-115.568;2023-07-09T02:32:43;29.70;20.43
69598;SHT31;70000;51.176;-115.568;2023-07-09T02:36:00;29.51;20.75
69598;SHT31;70000;51.176;-115.568;2023-07-09T02:39:26;29.31;21.19
69598;SHT31;70000;51.176;-115.568;2023-07-09T02:42:09;29.16;21.54
69598;SHT31;70000;51.176;-115.568;2023-07-09T02:45:08;28.97;21.72
69598;SHT31;70000;51.176;-115.568;2023-07-09T02:47:38;28.77;22.01
69598;SHT31;70000;51.176;-115.568;2023-07-09T02:50:08;28.59;22.32
69598;SHT31;70000;51.176;-115.568;2023-07-09T02:52:39;28.45;22.55
69598;SHT31;70000;51.176;-115.568;2023-07-09T02:55:09;28.29;22.67
69598;SHT31;70000;51.176;-115.568;2023-07-09T02:57:52;28.16;22.81
69598;SHT31;70000;51.176;-115.568;2023-07-09T03:03:54;27.73;23.29
69598;SHT31;70000;51.176;-115.568;2023-07-09T03:06:24;27.53;23.58
69598;SHT31;70000;51.176;-115.568;2023-07-09T03:09:02;27.36;23.70
69598;SHT31;70000;51.176;-115.568;2023-07-09T03:11:35;27.20;23.96
69598;SHT31;70000;51.176;-115.568;2023-07-09T03:14:35;27.05;24.24
69598;SHT31;70000;51.176;-115.568;2023-07-09T03:18:01;26.87;24.59
69598;SHT31;70000;51.176;-115.568;2023-07-09T03:24:26;26.49;24.77
69598;SHT31;70000;51.176;-115.568;2023-07-09T03:35:31;25.90;25.66
69598;SHT31;70000;51.176;-115.568;2023-07-09T03:39:15;25.75;25.81
69598;SHT31;70000;51.176;-115.568;2023-07-09T03:54:42;25.09;26.64
69598;SHT31;70000;51.176;-115.568;2023-07-09T03:58:11;24.94;26.79
69598;SHT31;70000;51.176;-115.568;2023-07-09T04:01:46;24.80;27.10
69598;SHT31;70000;51.176;-115.568;2023-07-09T04:04:16;24.69;27.28
69598;SHT31;70000;51.176;-115.568;2023-07-09T04:06:48;24.62;27.32
69598;SHT31;70000;51.176;-115.568;2023-07-09T04:09:18;24.52;27.48
69598;SHT31;70000;51.176;-115.568;2023-07-09T04:11:47;24.43;27.71
69598;SHT31;70000;51.176;-115.568;2023-07-09T04:14:18;24.34;27.69
69598;SHT31;70000;51.176;-115.568;2023-07-09T04:16:47;24.25;27.79
69598;SHT31;70000;51.176;-115.568;2023-07-09T04:19:16;24.17;28.15
69598;SHT31;70000;51.176;-115.568;2023-07-09T04:21:45;24.10;28.37
69598;SHT31;70000;51.176;-115.568;2023-07-09T04:24:21;24.04;28.56
69598;SHT31;70000;51.176;-115.568;2023-07-09T04:26:51;23.95;28.99
69598;SHT31;70000;51.176;-115.568;2023-07-09T04:29:24;23.83;29.34
69598;SHT31;70000;51.176;-115.568;2023-07-09T04:31:58;23.72;29.44
69598;SHT31;70000;51.176;-115.568;2023-07-09T04:34:34;23.62;29.77
69598;SHT31;70000;51.176;-115.568;2023-07-09T04:37:11;23.49;30.13
69598;SHT31;70000;51.176;-115.568;2023-07-09T04:39:52;23.30;30.71
69598;SHT31;70000;51.176;-115.568;2023-07-09T04:42:23;23.14;31.15
69598;SHT31;70000;51.176;-115.568;2023-07-09T04:44:58;23.01;31.51
69598;SHT31;70000;51.176;-115.568;2023-07-09T04:47:29;22.86;31.74
69598;SHT31;70000;51.176;-115.568;2023-07-09T04:50:03;22.79;31.89
69598;SHT31;70000;51.176;-115.568;2023-07-09T04:52:35;22.77;31.84
69598;SHT31;70000;51.176;-115.568;2023-07-09T04:55:05;22.76;32.16
69598;SHT31;70000;51.176;-115.568;2023-07-09T04:57:36;22.74;32.33
69598;SHT31;70000;51.176;-115.568;2023-07-09T05:00:05;22.68;32.32
69598;SHT31;70000;51.176;-115.568;2023-07-09T05:02:37;22.64;32.35
69598;SHT31;70000;51.176;-115.568;2023-07-09T05:05:07;22.60;32.26
69598;SHT31;70000;51.176;-115.568;2023-07-09T05:07:40;22.53;32.04
69598;SHT31;70000;51.176;-115.568;2023-07-09T05:10:10;22.48;31.93
69598;SHT31;70000;51.176;-115.568;2023-07-09T05:12:49;22.44;31.98
69598;SHT31;70000;51.176;-115.568;2023-07-09T05:15:23;22.31;32.09
69598;SHT31;70000;51.176;-115.568;2023-07-09T05:17:53;22.26;32.34
69598;SHT31;70000;51.176;-115.568;2023-07-09T05:20:22;22.21;32.40
69598;SHT31;70000;51.176;-115.568;2023-07-09T05:22:53;22.15;32.34
69598;SHT31;70000;51.176;-115.568;2023-07-09T05:25:22;22.11;32.58
69598;SHT31;70000;51.176;-115.568;2023-07-09T05:27:52;22.00;32.97
69598;SHT31;70000;51.176;-115.568;2023-07-09T05:30:21;21.87;32.92
69598;SHT31;70000;51.176;-115.568;2023-07-09T05:32:51;21.81;32.88
69598;SHT31;70000;51.176;-115.568;2023-07-09T05:35:25;21.76;33.05
69598;SHT31;70000;51.176;-115.568;2023-07-09T05:41:20;21.60;33.28
69598;SHT31;70000;51.176;-115.568;2023-07-09T05:43:52;21.51;33.17
69598;SHT31;70000;51.176;-115.568;2023-07-09T05:46:22;21.43;33.12
69598;SHT31;70000;51.176;-115.568;2023-07-09T05:48:51;21.38;33.13
69598;SHT31;70000;51.176;-115.568;2023-07-09T05:51:19;21.31;33.32
69598;SHT31;70000;51.176;-115.568;2023-07-09T05:53:51;21.25;33.16
69598;SHT31;70000;51.176;-115.568;2023-07-09T05:56:20;21.20;33.19
69598;SHT31;70000;51.176;-115.568;2023-07-09T05:58:49;21.12;32.95
69598;SHT31;70000;51.176;-115.568;2023-07-09T06:01:17;21.04;32.95
69598;SHT31;70000;51.176;-115.568;2023-07-09T06:03:47;20.97;33.04
69598;SHT31;70000;51.176;-115.568;2023-07-09T06:06:17;20.88;33.24
69598;SHT31;70000;51.176;-115.568;2023-07-09T06:08:46;20.78;33.22
69598;SHT31;70000;51.176;-115.568;2023-07-09T06:11:15;20.70;33.21
69598;SHT31;70000;51.176;-115.568;2023-07-09T06:25:37;20.28;33.70
69598;SHT31;70000;51.176;-115.568;2023-07-09T06:28:10;20.22;33.78
69598;SHT31;70000;51.176;-115.568;2023-07-09T06:30:39;20.16;33.81
69598;SHT31;70000;51.176;-115.568;2023-07-09T06:33:26;20.12;33.81
69598;SHT31;70000;51.176;-115.568;2023-07-09T06:35:58;20.06;33.86
69598;SHT31;70000;51.176;-115.568;2023-07-09T06:38:30;19.98;34.02
69598;SHT31;70000;51.176;-115.568;2023-07-09T06:40:59;19.91;34.25
69598;SHT31;70000;51.176;-115.568;2023-07-09T06:43:29;19.84;34.41
69598;SHT31;70000;51.176;-115.568;2023-07-09T06:46:01;19.77;34.41
69598;SHT31;70000;51.176;-115.568;2023-07-09T06:48:33;19.66;34.50
69598;SHT31;70000;51.176;-115.568;2023-07-09T06:51:02;19.59;34.57
69598;SHT31;70000;51.176;-115.568;2023-07-09T06:53:33;19.53;34.74
69598;SHT31;70000;51.176;-115.568;2023-07-09T06:56:17;19.42;34.87
69598;SHT31;70000;51.176;-115.568;2023-07-09T06:58:52;19.30;35.16
69598;SHT31;70000;51.176;-115.568;2023-07-09T07:01:22;19.20;35.29
69598;SHT31;70000;51.176;-115.568;2023-07-09T07:04:04;19.11;35.40
69598;SHT31;70000;51.176;-115.568;2023-07-09T07:06:44;19.04;35.56
69598;SHT31;70000;51.176;-115.568;2023-07-09T07:09:16;18.97;35.60
69598;SHT31;70000;51.176;-115.568;2023-07-09T07:12:04;18.90;35.78
69598;SHT31;70000;51.176;-115.568;2023-07-09T07:15:00;18.83;35.97
69598;SHT31;70000;51.176;-115.568;2023-07-09T07:17:52;18.77;36.03
69598;SHT31;70000;51.176;-115.568;2023-07-09T07:20:25;18.73;36.01
69598;SHT31;70000;51.176;-115.568;2023-07-09T07:22:57;18.70;35.99
69598;SHT31;70000;51.176;-115.568;2023-07-09T07:25:29;18.65;36.02
69598;SHT31;70000;51.176;-115.568;2023-07-09T07:28:01;18.61;36.01
69598;SHT31;70000;51.176;-115.568;2023-07-09T07:30:31;18.56;36.06
69598;SHT31;70000;51.176;-115.568;2023-07-09T07:33:00;18.50;36.22
69598;SHT31;70000;51.176;-115.568;2023-07-09T07:35:34;18.44;36.27
69598;SHT31;70000;51.176;-115.568;2023-07-09T07:38:26;18.36;36.49
69598;SHT31;70000;51.176;-115.568;2023-07-09T07:40:55;18.28;36.65
69598;SHT31;70000;51.176;-115.568;2023-07-09T07:43:25;18.24;36.73
69598;SHT31;70000;51.176;-115.568;2023-07-09T07:45:55;18.19;36.79
69598;SHT31;70000;51.176;-115.568;2023-07-09T07:48:29;18.13;36.92
69598;SHT31;70000;51.176;-115.568;2023-07-09T07:51:02;18.07;37.01
69598;SHT31;70000;51.176;-115.568;2023-07-09T07:53:32;18.00;37.24
69598;SHT31;70000;51.176;-115.568;2023-07-09T07:56:04;17.95;37.31
69598;SHT31;70000;51.176;-115.568;2023-07-09T07:58:33;17.91;37.44
69598;SHT31;70000;51.176;-115.568;2023-07-09T08:01:03;17.86;37.78
69598;SHT31;70000;51.176;-115.568;2023-07-09T08:03:32;17.80;38.12
69598;SHT31;70000;51.176;-115.568;2023-07-09T08:06:02;17.73;38.50
69598;SHT31;70000;51.176;-115.568;2023-07-09T08:08:35;17.67;38.67
69598;SHT31;70000;51.176;-115.568;2023-07-09T08:11:06;17.61;38.72
69598;SHT31;70000;51.176;-115.568;2023-07-09T08:13:36;17.55;38.83
69598;SHT31;70000;51.176;-115.568;2023-07-09T08:16:07;17.51;39.02
69598;SHT31;70000;51.176;-115.568;2023-07-09T08:18:39;17.44;39.11
69598;SHT31;70000;51.176;-115.568;2023-07-09T08:21:09;17.39;39.24
69598;SHT31;70000;51.176;-115.568;2023-07-09T08:23:38;17.32;39.33
69598;SHT31;70000;51.176;-115.568;2023-07-09T08:26:08;17.27;39.16
69598;SHT31;70000;51.176;-115.568;2023-07-09T08:28:37;17.21;39.39
69598;SHT31;70000;51.176;-115.568;2023-07-09T08:31:11;17.14;39.40
69598;SHT31;70000;51.176;-115.568;2023-07-09T08:34:05;17.10;39.42
69598;SHT31;70000;51.176;-115.568;2023-07-09T08:36:43;17.06;39.50
69598;SHT31;70000;51.176;-115.568;2023-07-09T08:39:18;17.01;39.58
69598;SHT31;70000;51.176;-115.568;2023-07-09T08:45:13;16.89;39.65
69598;SHT31;70000;51.176;-115.568;2023-07-09T08:48:23;16.84;39.84
69598;SHT31;70000;51.176;-115.568;2023-07-09T08:51:04;16.78;39.94
69598;SHT31;70000;51.176;-115.568;2023-07-09T08:54:03;16.72;40.13
69598;SHT31;70000;51.176;-115.568;2023-07-09T08:57:25;16.66;40.46
69598;SHT31;70000;51.176;-115.568;2023-07-09T09:00:07;16.59;40.74
69598;SHT31;70000;51.176;-115.568;2023-07-09T09:06:12;16.47;40.99
69598;SHT31;70000;51.176;-115.568;2023-07-09T09:09:29;16.39;41.28
69598;SHT31;70000;51.176;-115.568;2023-07-09T09:13:05;16.30;41.53
69598;SHT31;70000;51.176;-115.568;2023-07-09T09:20:08;16.20;42.06
69598;SHT31;70000;51.176;-115.568;2023-07-09T09:25:42;16.07;42.78
69598;SHT31;70000;51.176;-115.568;2023-07-09T09:28:38;15.98;42.66
69598;SHT31;70000;51.176;-115.568;2023-07-09T09:31:10;15.93;42.58
69598;SHT31;70000;51.176;-115.568;2023-07-09T09:33:44;15.91;42.49
69598;SHT31;70000;51.176;-115.568;2023-07-09T09:36:25;15.89;42.73
69598;SHT31;70000;51.176;-115.568;2023-07-09T09:39:04;15.83;43.15
69598;SHT31;70000;51.176;-115.568;2023-07-09T09:41:37;15.71;43.65
69598;SHT31;70000;51.176;-115.568;2023-07-09T09:44:18;15.63;44.10
69598;SHT31;70000;51.176;-115.568;2023-07-09T09:46:58;15.59;44.20
69598;SHT31;70000;51.176;-115.568;2023-07-09T09:49:39;15.54;44.28
69598;SHT31;70000;51.176;-115.568;2023-07-09T09:52:14;15.50;44.32
69598;SHT31;70000;51.176;-115.568;2023-07-09T09:54:52;15.41;44.50
69598;SHT31;70000;51.176;-115.568;2023-07-09T09:57:56;15.35;44.73
69598;SHT31;70000;51.176;-115.568;2023-07-09T10:00:29;15.30;45.01
69598;SHT31;70000;51.176;-115.568;2023-07-09T10:03:06;15.25;44.99
69598;SHT31;70000;51.176;-115.568;2023-07-09T10:05:50;15.19;45.29
69598;SHT31;70000;51.176;-115.568;2023-07-09T10:08:32;15.11;45.46
69598;SHT31;70000;51.176;-115.568;2023-07-09T10:11:52;14.98;45.57
69598;SHT31;70000;51.176;-115.568;2023-07-09T10:18:03;14.91;45.67
69598;SHT31;70000;51.176;-115.568;2023-07-09T10:26:36;14.80;45.48
69598;SHT31;70000;51.176;-115.568;2023-07-09T10:32:08;14.72;45.85
69598;SHT31;70000;51.176;-115.568;2023-07-09T10:40:37;14.50;46.53
69598;SHT31;70000;51.176;-115.568;2023-07-09T10:43:16;14.43;46.80
69598;SHT31;70000;51.176;-115.568;2023-07-09T10:46:25;14.34;46.92
69598;SHT31;70000;51.176;-115.568;2023-07-09T10:49:02;14.28;47.02
69598;SHT31;70000;51.176;-115.568;2023-07-09T10:54:24;14.13;47.21
69598;SHT31;70000;51.176;-115.568;2023-07-09T10:57:16;14.09;47.43
69598;SHT31;70000;51.176;-115.568;2023-07-09T11:00:14;14.06;47.54
69598;SHT31;70000;51.176;-115.568;2023-07-09T11:02:51;14.03;47.74
69598;SHT31;70000;51.176;-115.568;2023-07-09T11:05:31;14.01;47.82
69598;SHT31;70000;51.176;-115.568;2023-07-09T11:10:41;13.98;48.29
69598;SHT31;70000;51.176;-115.568;2023-07-09T11:13:21;13.97;48.42
69598;SHT31;70000;51.176;-115.568;2023-07-09T11:16:28;13.90;48.65
69598;SHT31;70000;51.176;-115.568;2023-07-09T11:19:15;13.86;48.62
69598;SHT31;70000;51.176;-115.568;2023-07-09T11:22:02;13.86;48.70
69598;SHT31;70000;51.176;-115.568;2023-07-09T11:27:49;13.82;48.94
69598;SHT31;70000;51.176;-115.568;2023-07-09T11:30:25;13.83;48.99
69598;SHT31;70000;51.176;-115.568;2023-07-09T11:33:00;13.81;48.96
69598;SHT31;70000;51.176;-115.568;2023-07-09T11:35:50;13.79;48.90
69598;SHT31;70000;51.176;-115.568;2023-07-09T11:38:43;13.78;48.82
69598;SHT31;70000;51.176;-115.568;2023-07-09T11:50:04;13.67;48.60
69598;SHT31;70000;51.176;-115.568;2023-07-09T11:52:59;13.66;48.79
69598;SHT31;70000;51.176;-115.568;2023-07-09T11:55:54;13.63;48.68
69598;SHT31;70000;51.176;-115.568;2023-07-09T11:58:22;13.59;49.09
69598;SHT31;70000;51.176;-115.568;2023-07-09T12:00:54;13.49;49.42
69598;SHT31;70000;51.176;-115.568;2023-07-09T12:03:34;13.45;49.67
69598;SHT31;70000;51.176;-115.568;2023-07-09T12:06:25;13.42;49.82
69598;SHT31;70000;51.176;-115.568;2023-07-09T12:09:13;13.39;49.73
69598;SHT31;70000;51.176;-115.568;2023-07-09T12:11:52;13.39;49.67
69598;SHT31;70000;51.176;-115.568;2023-07-09T12:14:24;13.37;49.70
69598;SHT31;70000;51.176;-115.568;2023-07-09T12:17:07;13.35;49.83
69598;SHT31;70000;51.176;-115.568;2023-07-09T12:19:40;13.35;49.90
69598;SHT31;70000;51.176;-115.568;2023-07-09T12:22:23;13.33;50.03
69598;SHT31;70000;51.176;-115.568;2023-07-09T12:24:55;13.31;50.23
69598;SHT31;70000;51.176;-115.568;2023-07-09T12:27:27;13.28;50.50
69598;SHT31;70000;51.176;-115.568;2023-07-09T12:30:38;13.26;50.78
69598;SHT31;70000;51.176;-115.568;2023-07-09T12:33:46;13.25;50.72
69598;SHT31;70000;51.176;-115.568;2023-07-09T12:36:43;13.26;50.88
69598;SHT31;70000;51.176;-115.568;2023-07-09T12:39:28;13.21;51.10
69598;SHT31;70000;51.176;-115.568;2023-07-09T12:42:14;13.20;51.36
69598;SHT31;70000;51.176;-115.568;2023-07-09T12:45:24;13.15;51.44
69598;SHT31;70000;51.176;-115.568;2023-07-09T12:48:33;13.13;51.70
69598;SHT31;70000;51.176;-115.568;2023-07-09T12:51:15;13.13;51.73
69598;SHT31;70000;51.176;-115.568;2023-07-09T12:54:18;13.15;51.47
69598;SHT31;70000;51.176;-115.568;2023-07-09T12:57:26;13.14;51.21
69598;SHT31;70000;51.176;-115.568;2023-07-09T13:00:00;13.14;51.42
69598;SHT31;70000;51.176;-115.568;2023-07-09T13:02:37;13.14;51.43
69598;SHT31;70000;51.176;-115.568;2023-07-09T13:05:22;13.16;51.47
69598;SHT31;70000;51.176;-115.568;2023-07-09T13:07:59;13.17;51.41
69598;SHT31;70000;51.176;-115.568;2023-07-09T13:10:42;13.17;51.35
69598;SHT31;70000;51.176;-115.568;2023-07-09T13:13:20;13.18;51.44
69598;SHT31;70000;51.176;-115.568;2023-07-09T13:15:57;13.19;51.66
69598;SHT31;70000;51.176;-115.568;2023-07-09T13:18:29;13.18;51.94
69598;SHT31;70000;51.176;-115.568;2023-07-09T13:21:00;13.18;52.04
69598;SHT31;70000;51.176;-115.568;2023-07-09T13:23:48;13.16;52.04
69598;SHT31;70000;51.176;-115.568;2023-07-09T13:26:22;13.17;52.19
69598;SHT31;70000;51.176;-115.568;2023-07-09T13:28:53;13.19;52.12
69598;SHT31;70000;51.176;-115.568;2023-07-09T13:31:29;13.19;52.02
69598;SHT31;70000;51.176;-115.568;2023-07-09T13:37:14;13.25;52.24
69598;SHT31;70000;51.176;-115.568;2023-07-09T13:42:36;13.25;52.33
69598;SHT31;70000;51.176;-115.568;2023-07-09T13:45:19;13.27;52.49
69598;SHT31;70000;51.176;-115.568;2023-07-09T13:47:55;13.27;52.91
69598;SHT31;70000;51.176;-115.568;2023-07-09T13:50:34;13.29;52.86
69598;SHT31;70000;51.176;-115.568;2023-07-09T13:53:03;13.31;52.64
69598;SHT31;70000;51.176;-115.568;2023-07-09T13:55:36;13.34;52.51
69598;SHT31;70000;51.176;-115.568;2023-07-09T13:58:05;13.36;52.68
69598;SHT31;70000;51.176;-115.568;2023-07-09T14:00:40;13.37;52.81
69598;SHT31;70000;51.176;-115.568;2023-07-09T14:03:14;13.41;52.77
69598;SHT31;70000;51.176;-115.568;2023-07-09T14:05:52;13.44;52.78
69598;SHT31;70000;51.176;-115.568;2023-07-09T14:08:21;13.47;52.84
69598;SHT31;70000;51.176;-115.568;2023-07-09T14:10:53;13.50;52.73
69598;SHT31;70000;51.176;-115.568;2023-07-09T14:13:23;13.56;52.62
69598;SHT31;70000;51.176;-115.568;2023-07-09T14:15:56;13.63;52.67
69598;SHT31;70000;51.176;-115.568;2023-07-09T14:18:25;13.69;52.88
69598;SHT31;70000;51.176;-115.568;2023-07-09T14:20:54;13.74;52.59
69598;SHT31;70000;51.176;-115.568;2023-07-09T14:23:37;13.81;52.23
69598;SHT31;70000;51.176;-115.568;2023-07-09T14:26:09;13.88;52.14
69598;SHT31;70000;51.176;-115.568;2023-07-09T14:28:38;13.95;52.35
69598;SHT31;70000;51.176;-115.568;2023-07-09T14:31:51;14.01;52.03
69598;SHT31;70000;51.176;-115.568;2023-07-09T14:37:14;14.14;51.92
69598;SHT31;70000;51.176;-115.568;2023-07-09T14:39:51;14.20;52.12
69598;SHT31;70000;51.176;-115.568;2023-07-09T14:42:21;14.27;51.86
69598;SHT31;70000;51.176;-115.568;2023-07-09T14:44:55;14.33;51.53
69598;SHT31;70000;51.176;-115.568;2023-07-09T14:47:23;14.39;51.58
69598;SHT31;70000;51.176;-115.568;2023-07-09T14:49:54;14.45;51.26
69598;SHT31;70000;51.176;-115.568;2023-07-09T14:52:24;14.51;51.14
69598;SHT31;70000;51.176;-115.568;2023-07-09T14:54:53;14.59;51.04
69598;SHT31;70000;51.176;-115.568;2023-07-09T14:57:22;14.65;51.02
69598;SHT31;70000;51.176;-115.568;2023-07-09T14:59:57;14.73;51.03
69598;SHT31;70000;51.176;-115.568;2023-07-09T15:05:11;14.89;50.96
69598;SHT31;70000;51.176;-115.568;2023-07-09T15:07:44;14.98;51.15
69598;SHT31;70000;51.176;-115.568;2023-07-09T15:10:23;15.06;51.33
69598;SHT31;70000;51.176;-115.568;2023-07-09T15:12:54;15.15;51.22
69598;SHT31;70000;51.176;-115.568;2023-07-09T15:15:30;15.22;51.21
69598;SHT31;70000;51.176;-115.568;2023-07-09T15:18:08;15.29;51.02
69598;SHT31;70000;51.176;-115.568;2023-07-09T15:20:48;15.39;50.98
69598;SHT31;70000;51.176;-115.568;2023-07-09T15:23:21;15.47;50.75
69598;SHT31;70000;51.176;-115.568;2023-07-09T15:26:00;15.55;50.72
69598;SHT31;70000;51.176;-115.568;2023-07-09T15:30:12;15.67;50.40
69598;SHT31;70000;51.176;-115.568;2023-07-09T15:33:42;15.77;50.10
69598;SHT31;70000;51.176;-115.568;2023-07-09T15:42:00;16.07;49.30
69598;SHT31;70000;51.176;-115.568;2023-07-09T15:46:15;16.23;49.29
69598;SHT31;70000;51.176;-115.568;2023-07-09T15:53:58;16.55;48.95
69598;SHT31;70000;51.176;-115.568;2023-07-09T15:56:28;16.65;48.86
69598;SHT31;70000;51.176;-115.568;2023-07-09T15:59:01;16.75;48.58
69598;SHT31;70000;51.176;-115.568;2023-07-09T16:01:32;16.85;48.85
69598;SHT31;70000;51.176;-115.568;2023-07-09T16:04:03;16.95;48.62
69598;SHT31;70000;51.176;-115.568;2023-07-09T16:06:54;17.07;48.02
69598;SHT31;70000;51.176;-115.568;2023-07-09T16:09:28;17.19;47.53
69598;SHT31;70000;51.176;-115.568;2023-07-09T16:11:58;17.29;47.44
69598;SHT31;70000;51.176;-115.568;2023-07-09T16:14:36;17.39;47.09
69598;SHT31;70000;51.176;-115.568;2023-07-09T16:17:08;17.47;46.72
69598;SHT31;70000;51.176;-115.568;2023-07-09T16:19:39;17.56;46.58
69598;SHT31;70000;51.176;-115.568;2023-07-09T16:22:10;17.64;46.11
69598;SHT31;70000;51.176;-115.568;2023-07-09T16:24:47;17.77;45.91
69598;SHT31;70000;51.176;-115.568;2023-07-09T16:27:17;17.87;45.81
69598;SHT31;70000;51.176;-115.568;2023-07-09T16:29:49;18.00;45.37
69598;SHT31;70000;51.176;-115.568;2023-07-09T16:32:35;18.09;45.21
69598;SHT31;70000;51.176;-115.568;2023-07-09T16:35:20;18.22;44.93
69598;SHT31;70000;51.176;-115.568;2023-07-09T16:37:53;18.35;45.10
69598;SHT31;70000;51.176;-115.568;2023-07-09T16:40:29;18.46;44.88
69598;SHT31;70000;51.176;-115.568;2023-07-09T16:43:14;18.56;44.80
69598;SHT31;70000;51.176;-115.568;2023-07-09T16:45:46;18.65;44.84
69598;SHT31;70000;51.176;-115.568;2023-07-09T16:48:16;18.80;44.47
69598;SHT31;70000;51.176;-115.568;2023-07-09T16:50:50;18.92;43.79
69598;SHT31;70000;51.176;-115.568;2023-07-09T16:53:24;19.03;43.56
69598;SHT31;70000;51.176;-115.568;2023-07-09T16:55:56;19.15;43.23
69598;SHT31;70000;51.176;-115.568;2023-07-09T16:58:34;19.26;43.18
69598;SHT31;70000;51.176;-115.568;2023-07-09T17:01:05;19.34;43.23
69598;SHT31;70000;51.176;-115.568;2023-07-09T17:03:38;19.43;43.29
69598;SHT31;70000;51.176;-115.568;2023-07-09T17:06:13;19.51;43.14
69598;SHT31;70000;51.176;-115.568;2023-07-09T17:08:42;19.61;42.90
69598;SHT31;70000;51.176;-115.568;2023-07-09T17:11:16;19.73;42.69
69598;SHT31;70000;51.176;-115.568;2023-07-09T17:13:47;19.84;42.64
69598;SHT31;70000;51.176;-115.568;2023-07-09T17:16:28;19.94;42.25
69598;SHT31;70000;51.176;-115.568;2023-07-09T17:19:04;20.05;42.09
69598;SHT31;70000;51.176;-115.568;2023-07-09T17:21:51;20.19;41.81
69598;SHT31;70000;51.176;-115.568;2023-07-09T17:24:26;20.32;41.53
69598;SHT31;70000;51.176;-115.568;2023-07-09T17:26:56;20.40;40.92
69598;SHT31;70000;51.176;-115.568;2023-07-09T17:29:26;20.50;40.48
69598;SHT31;70000;51.176;-115.568;2023-07-09T17:31:56;20.64;40.57
69598;SHT31;70000;51.176;-115.568;2023-07-09T17:34:25;20.75;40.26
69598;SHT31;70000;51.176;-115.568;2023-07-09T17:36:55;20.85;39.91
69598;SHT31;70000;51.176;-115.568;2023-07-09T17:39:24;20.97;39.07
69598;SHT31;70000;51.176;-115.568;2023-07-09T17:41:54;21.13;38.98
69598;SHT31;70000;51.176;-115.568;2023-07-09T17:44:27;21.26;39.23
69598;SHT31;70000;51.176;-115.568;2023-07-09T17:46:57;21.42;39.38
69598;SHT31;70000;51.176;-115.568;2023-07-09T17:49:27;21.67;38.24
69598;SHT31;70000;51.176;-115.568;2023-07-09T17:52:01;21.81;37.78
69598;SHT31;70000;51.176;-115.568;2023-07-09T17:54:33;22.02;37.30
69598;SHT31;70000;51.176;-115.568;2023-07-09T17:57:02;22.20;37.11
69598;SHT31;70000;51.176;-115.568;2023-07-09T17:59:33;22.36;36.27
69598;SHT31;70000;51.176;-115.568;2023-07-09T18:02:10;22.51;36.30
69598;SHT31;70000;51.176;-115.568;2023-07-09T18:04:46;22.64;36.02
69598;SHT31;70000;51.176;-115.568;2023-07-09T18:07:23;22.82;35.84